Aérodrome :
LOGIN :

S'inscrire | Disclaimer

   EN    FR    IT 

 










Légende :    VFR   VFR Marginal   IFR   IFR Intensif   IFR Très Intensif
Visi : 
Plafond : 
>= 8 km
>= 3000ft
5 à 8 km
1000 à 3000 ft
1500m à 5 km
500 à 1000 ft
800 à 1500m
200 à 500 ft
< 800m
< 200 ft
Symboles :   Orages  Brouillard  Fortes neiges  Fortes précipitations  Vent > 20 kt
SIGMETs :   Divers  Orages  Givrage  Turbulence  Onde Orograph.  Cendres Volcan.






- Altitude de l'aérodrome : 362 ft
- Code IATA : WAW


EPWA - Warsaw Okecie

DERNIER METAR :
  • 290830Z 34016KT 9999 FEW044 16/04 Q1023 NOSIG

METARs EXPIRÉS :
  • 290800Z 34016KT 9999 FEW046 16/04 Q1023 NOSIG
  • 290730Z 35015KT CAVOK 16/04 Q1023 NOSIG
  • 290700Z 36012KT 330V030 CAVOK 15/03 Q1023 NOSIG
  • 290630Z 36013KT 330V030 CAVOK 14/04 Q1023 NOSIG
  • 290600Z 36010KT CAVOK 14/05 Q1023 NOSIG

TAF TAF EPWA
Valide du 29 à 09h jusqu'au 30 à 09h UTC


290830Z 2909/3009 35012KT CAVOK
PROB40
TEMPO 2909/2916 36017G28KT SCT040TCU



MET'MAP, la Météo Aéronautique d'un coup d'oeil ! - Copyright ORBIFLY Décembre 2007 - Disclaimer

ORBIFLY MET'MAP TEAM :

Programmation & Développement : Alexandra Zaïnal
Sur une idée originale de : Baudouin d'Aumeries
Assistance à la programmation : Marc-Olivier Méhu
Soutien technique & logistique : Manuel Goepfert

Contact : metmap@orbifly.com




SOURCES & CREDITS :

   NOAA